createdAt,value
2019-03-10T00:01:54.176Z,1.57
2019-03-10T00:04:21.352Z,1.80
2019-03-10T00:06:48.529Z,1.40
2019-03-10T00:09:15.693Z,2.00
2019-03-10T00:11:42.867Z,1.83
2019-03-10T00:14:10.145Z,1.17
2019-03-10T00:16:37.301Z,1.47
2019-03-10T00:19:04.598Z,1.07
2019-03-10T00:21:32.173Z,1.93
2019-03-10T00:23:59.355Z,1.70
2019-03-10T00:26:26.544Z,1.37
2019-03-10T00:28:53.728Z,1.30
2019-03-10T00:31:20.911Z,1.43
2019-03-10T00:33:48.067Z,1.33
2019-03-10T00:36:15.250Z,1.60
2019-03-10T00:38:44.681Z,1.40
2019-03-10T00:41:25.874Z,1.30
2019-03-10T00:44:06.540Z,1.77
2019-03-10T00:46:51.788Z,1.70
2019-03-10T00:49:36.949Z,1.50
2019-03-10T00:52:05.885Z,1.53
2019-03-10T00:54:33.053Z,1.67
2019-03-10T00:57:00.241Z,1.63
2019-03-10T00:59:27.430Z,1.40
2019-03-10T01:01:54.610Z,1.37
2019-03-10T01:04:21.770Z,1.97
2019-03-10T01:06:48.957Z,2.60
2019-03-10T01:09:16.147Z,1.07
2019-03-10T01:11:43.860Z,1.40
2019-03-10T01:14:11.033Z,1.37
2019-03-10T01:16:38.198Z,1.57
2019-03-10T01:19:05.381Z,1.77
2019-03-10T01:21:33.114Z,1.33
2019-03-10T01:24:00.355Z,1.40
2019-03-10T01:26:27.515Z,1.63
2019-03-10T01:28:55.068Z,1.57
2019-03-10T01:31:23.866Z,1.90
2019-03-10T01:33:52.658Z,2.37
2019-03-10T01:36:20.034Z,1.50
2019-03-10T01:38:47.186Z,2.17
2019-03-10T01:41:14.789Z,1.13
2019-03-10T01:43:41.987Z,1.40
2019-03-10T01:46:09.166Z,1.30
2019-03-10T01:48:36.339Z,1.20
2019-03-10T01:51:03.523Z,1.60
2019-03-10T01:53:30.694Z,1.63
2019-03-10T01:55:57.854Z,1.60
2019-03-10T01:58:25.046Z,1.10
2019-03-10T02:00:52.231Z,1.40
2019-03-10T02:03:19.997Z,1.23
2019-03-10T02:05:47.170Z,1.20
2019-03-10T02:08:14.351Z,1.20
2019-03-10T02:10:41.518Z,2.57
2019-03-10T02:13:08.695Z,1.90
2019-03-10T02:15:36.465Z,1.10
2019-03-10T02:18:03.897Z,1.97
2019-03-10T02:20:31.400Z,1.40
2019-03-10T02:22:59.098Z,1.60
2019-03-10T02:25:26.258Z,1.67
2019-03-10T02:27:53.430Z,1.90
2019-03-10T02:30:21.215Z,1.40
2019-03-10T02:32:48.903Z,1.30
2019-03-10T02:35:16.083Z,3.10
2019-03-10T02:37:43.343Z,1.40
2019-03-10T02:40:10.585Z,0.90
2019-03-10T02:42:37.880Z,1.27
2019-03-10T02:45:05.984Z,1.70
2019-03-10T02:47:33.147Z,1.30
2019-03-10T02:50:00.482Z,1.53
2019-03-10T02:52:28.079Z,1.13
2019-03-10T02:54:55.273Z,1.20
2019-03-10T02:57:22.855Z,1.70
2019-03-10T02:59:50.531Z,1.70
2019-03-10T03:02:17.699Z,2.10
2019-03-10T03:04:45.168Z,1.60
2019-03-10T03:07:12.867Z,1.43
2019-03-10T03:09:40.027Z,1.40
2019-03-10T03:12:07.206Z,1.87
2019-03-10T03:14:34.439Z,1.60
2019-03-10T03:17:01.646Z,1.50
2019-03-10T03:19:28.827Z,1.40
2019-03-10T03:21:55.978Z,1.30
2019-03-10T03:24:23.160Z,1.60
2019-03-10T03:26:50.338Z,2.00
2019-03-10T03:29:17.511Z,1.37
2019-03-10T03:31:44.705Z,1.43
2019-03-10T03:34:12.182Z,1.33
2019-03-10T03:36:39.815Z,1.63
2019-03-10T03:39:14.609Z,2.03
2019-03-10T03:41:41.886Z,1.37
2019-03-10T03:44:09.636Z,1.67
2019-03-10T03:46:36.822Z,1.30
2019-03-10T03:49:04.562Z,1.60
2019-03-10T03:51:31.845Z,1.40
2019-03-10T03:53:59.078Z,2.37
2019-03-10T03:56:26.732Z,2.07
2019-03-10T03:58:53.905Z,1.60
2019-03-10T04:01:28.488Z,1.80
2019-03-10T04:03:55.664Z,2.00
2019-03-10T04:06:22.829Z,2.30
2019-03-10T04:08:50.008Z,1.83
2019-03-10T04:11:17.175Z,2.20
2019-03-10T04:13:44.402Z,2.23
2019-03-10T04:16:11.585Z,2.50
2019-03-10T04:18:38.783Z,2.33
2019-03-10T04:21:06.006Z,2.40
2019-03-10T04:23:33.200Z,2.33
2019-03-10T04:26:00.383Z,2.10
2019-03-10T04:28:27.549Z,2.10
2019-03-10T04:30:54.710Z,2.47
2019-03-10T04:33:21.903Z,2.63
2019-03-10T04:35:49.087Z,2.43
2019-03-10T04:38:16.782Z,2.93
2019-03-10T04:40:43.957Z,2.27
2019-03-10T04:43:11.670Z,2.60
2019-03-10T04:45:38.845Z,2.47
2019-03-10T04:48:06.008Z,2.70
2019-03-10T04:50:33.187Z,3.90
2019-03-10T04:53:00.376Z,2.57
2019-03-10T04:55:41.141Z,2.87
2019-03-10T04:58:12.883Z,3.13
2019-03-10T05:00:41.730Z,3.13
2019-03-10T05:03:09.910Z,3.00
2019-03-10T05:05:37.621Z,2.83
2019-03-10T05:08:04.805Z,2.60
2019-03-10T05:10:31.962Z,2.57
2019-03-10T05:12:59.138Z,3.13
2019-03-10T05:15:26.294Z,2.60
2019-03-10T05:17:53.460Z,3.17
2019-03-10T05:20:20.663Z,2.70
2019-03-10T05:22:47.910Z,2.83
2019-03-10T05:25:16.722Z,3.33
2019-03-10T05:27:43.890Z,3.67
2019-03-10T05:30:11.082Z,3.60
2019-03-10T05:32:38.232Z,2.93
2019-03-10T05:35:06.142Z,3.60
2019-03-10T05:37:34.043Z,3.47
2019-03-10T05:40:01.242Z,3.30
2019-03-10T05:42:28.855Z,3.60
2019-03-10T05:44:56.020Z,3.23
2019-03-10T05:47:23.194Z,3.63
2019-03-10T05:49:50.386Z,3.60
2019-03-10T05:52:17.562Z,2.80
2019-03-10T05:54:44.737Z,2.80
2019-03-10T05:57:11.927Z,3.47
2019-03-10T05:59:39.097Z,3.13
2019-03-10T06:02:06.279Z,3.00
2019-03-10T06:04:33.459Z,4.00
2019-03-10T06:07:00.621Z,3.30
2019-03-10T06:09:27.801Z,3.03
2019-03-10T06:11:54.963Z,3.10
2019-03-10T06:14:22.151Z,2.63
2019-03-10T06:16:49.314Z,2.67
2019-03-10T06:19:16.496Z,3.13
2019-03-10T06:21:43.674Z,2.73
2019-03-10T06:24:10.845Z,2.80
2019-03-10T06:26:38.051Z,3.30
2019-03-10T06:29:05.225Z,3.10
2019-03-10T06:31:32.438Z,3.23
2019-03-10T06:33:59.709Z,3.10
2019-03-10T06:36:26.952Z,3.27
2019-03-10T06:38:55.192Z,3.43
2019-03-10T06:41:22.594Z,3.63
2019-03-10T06:43:49.809Z,3.13
2019-03-10T06:46:16.972Z,3.27
2019-03-10T06:48:44.136Z,2.90
2019-03-10T06:51:11.315Z,2.40
2019-03-10T06:53:38.493Z,3.20
2019-03-10T06:56:05.674Z,2.60
2019-03-10T06:58:32.833Z,2.57
2019-03-10T07:01:00.016Z,2.80
2019-03-10T07:03:27.183Z,2.40
2019-03-10T07:05:54.356Z,2.63
2019-03-10T07:08:21.545Z,2.43
2019-03-10T07:10:48.718Z,3.07
2019-03-10T07:13:15.886Z,2.40
2019-03-10T07:15:43.055Z,3.20
2019-03-10T07:18:10.658Z,2.87
2019-03-10T07:20:37.817Z,2.87
2019-03-10T07:23:06.618Z,3.10
2019-03-10T07:25:33.866Z,2.40
2019-03-10T07:28:05.356Z,3.50
2019-03-10T07:30:34.179Z,2.77
2019-03-10T07:33:19.544Z,2.90
2019-03-10T07:36:00.194Z,2.57
2019-03-10T07:38:37.617Z,2.97
2019-03-10T07:41:09.593Z,2.90
2019-03-10T07:43:41.046Z,4.80
2019-03-10T07:46:15.583Z,3.20
2019-03-10T07:48:44.842Z,2.73
2019-03-10T07:51:13.643Z,3.53
2019-03-10T07:53:58.654Z,3.43
2019-03-10T07:56:39.323Z,2.60
2019-03-10T07:59:19.902Z,3.03
2019-03-10T08:01:51.672Z,2.87
2019-03-10T08:04:23.162Z,3.70
2019-03-10T08:06:54.362Z,3.10
2019-03-10T08:09:26.122Z,3.00
2019-03-10T08:11:57.826Z,3.33
2019-03-10T08:14:26.625Z,2.70
2019-03-10T08:16:55.459Z,3.10
2019-03-10T08:19:27.319Z,3.40
2019-03-10T08:21:58.792Z,3.10
2019-03-10T08:24:27.586Z,2.60
2019-03-10T08:27:05.322Z,4.30
2019-03-10T08:29:49.011Z,3.07
2019-03-10T08:32:26.929Z,3.30
2019-03-10T08:34:56.188Z,3.07
2019-03-10T08:37:43.142Z,3.27
2019-03-10T08:40:28.890Z,3.27
2019-03-10T08:43:14.138Z,4.20
2019-03-10T08:45:58.922Z,2.20
2019-03-10T08:48:27.750Z,2.47
2019-03-10T08:51:02.338Z,2.47
2019-03-10T08:53:47.686Z,2.50
2019-03-10T08:56:28.430Z,3.07
2019-03-10T08:59:13.770Z,1.50
2019-03-10T09:01:42.578Z,2.00
2019-03-10T09:04:14.483Z,2.50
2019-03-10T09:06:44.719Z,2.43
2019-03-10T09:09:28.550Z,2.27
2019-03-10T09:12:03.224Z,2.23
2019-03-10T09:14:41.103Z,2.20
2019-03-10T09:17:09.939Z,2.40
2019-03-10T09:19:56.925Z,1.60
2019-03-10T09:22:31.958Z,2.10
2019-03-10T09:25:19.091Z,2.33
2019-03-10T09:28:04.678Z,2.87
2019-03-10T09:30:45.494Z,1.90
2019-03-10T09:33:23.374Z,2.10
2019-03-10T09:35:54.927Z,1.77
2019-03-10T09:38:29.685Z,2.43
2019-03-10T09:40:58.522Z,2.30
2019-03-10T09:43:30.275Z,1.60
2019-03-10T09:46:05.109Z,1.67
2019-03-10T09:48:37.152Z,1.60
2019-03-10T09:51:20.831Z,1.70
2019-03-10T09:53:52.583Z,2.03
2019-03-10T09:56:36.544Z,2.03
2019-03-10T09:59:08.034Z,1.70
2019-03-10T10:01:53.143Z,2.57
2019-03-10T10:04:21.957Z,1.90
2019-03-10T10:06:53.476Z,1.80
2019-03-10T10:09:34.336Z,2.17
2019-03-10T10:12:13.384Z,3.83
2019-03-10T10:14:48.750Z,2.73
2019-03-10T10:17:20.441Z,2.80
2019-03-10T10:19:49.266Z,2.83
2019-03-10T10:22:29.773Z,2.80
2019-03-10T10:25:01.202Z,3.27
2019-03-10T10:27:46.232Z,2.80
2019-03-10T10:30:17.477Z,2.53
2019-03-10T10:32:53.503Z,2.87
2019-03-10T10:35:28.192Z,3.33
2019-03-10T10:38:05.559Z,3.00
2019-03-10T10:40:34.378Z,2.90
2019-03-10T10:43:03.182Z,2.40
2019-03-10T10:45:46.618Z,2.70
2019-03-10T10:48:30.304Z,2.67
2019-03-10T10:50:59.130Z,3.07
2019-03-10T10:53:36.539Z,3.43
2019-03-10T10:56:08.001Z,3.00
2019-03-10T10:58:48.544Z,3.23
2019-03-10T11:01:23.054Z,2.53
2019-03-10T11:03:57.392Z,3.73
2019-03-10T11:06:44.121Z,4.20
2019-03-10T11:09:27.553Z,3.73
2019-03-10T11:12:04.982Z,3.77
2019-03-10T11:14:33.824Z,3.90
2019-03-10T11:17:08.335Z,4.03
2019-03-10T11:19:53.163Z,3.87
2019-03-10T11:22:24.361Z,3.77
2019-03-10T11:24:52.502Z,3.50
2019-03-10T11:27:21.319Z,3.57
2019-03-10T11:29:50.137Z,3.17
2019-03-10T11:32:30.522Z,2.60
2019-03-10T11:35:02.114Z,3.07
2019-03-10T11:37:45.674Z,3.17
2019-03-10T11:40:30.642Z,3.37
2019-03-10T11:42:59.468Z,2.63
2019-03-10T11:45:33.978Z,2.80
2019-03-10T11:48:02.797Z,3.53
2019-03-10T11:50:37.451Z,2.97
2019-03-10T11:53:18.758Z,2.77
2019-03-10T11:55:48.184Z,2.83
2019-03-10T11:58:19.763Z,3.60
2019-03-10T12:00:54.506Z,2.63
2019-03-10T12:03:26.240Z,2.80
2019-03-10T12:05:58.056Z,2.47
2019-03-10T12:08:26.861Z,2.67
2019-03-10T12:10:54.043Z,2.30
2019-03-10T12:13:21.235Z,2.47
2019-03-10T12:15:48.405Z,1.87
2019-03-10T12:18:15.591Z,2.23
2019-03-10T12:20:43.034Z,1.70
2019-03-10T12:23:10.203Z,1.57
2019-03-10T12:25:37.580Z,1.30
2019-03-10T12:28:05.024Z,1.50
2019-03-10T12:30:32.202Z,1.27
2019-03-10T12:32:59.380Z,1.03
2019-03-10T12:35:34.308Z,1.00
2019-03-10T12:37:55.478Z,0.93
2019-03-10T12:40:22.656Z,0.90
2019-03-10T12:42:49.878Z,1.17
2019-03-10T12:45:17.115Z,1.27
2019-03-10T12:47:44.295Z,1.23
2019-03-10T12:50:11.964Z,1.73
2019-03-10T12:52:39.118Z,1.17
2019-03-10T12:55:07.171Z,1.30
2019-03-10T12:57:34.367Z,1.60
2019-03-10T13:00:01.799Z,1.40
2019-03-10T13:02:28.989Z,1.53
2019-03-10T13:04:56.153Z,1.43
2019-03-10T13:07:23.331Z,1.30
2019-03-10T13:09:50.506Z,1.90
2019-03-10T13:12:17.700Z,1.30
2019-03-10T13:14:44.868Z,1.27
2019-03-10T13:17:12.052Z,1.63
2019-03-10T13:19:39.234Z,1.20
2019-03-10T13:22:06.404Z,1.90
2019-03-10T13:24:33.593Z,1.43
2019-03-10T13:27:01.201Z,1.30
2019-03-10T13:29:28.363Z,1.70
2019-03-10T13:31:55.544Z,1.20
2019-03-10T13:34:22.725Z,1.30
2019-03-10T13:36:49.909Z,1.90
2019-03-10T13:39:17.075Z,1.97
2019-03-10T13:41:44.270Z,1.73
2019-03-10T13:44:11.446Z,1.70
2019-03-10T13:46:38.613Z,1.50
2019-03-10T13:49:05.816Z,1.83
2019-03-10T13:51:32.984Z,2.30
2019-03-10T13:54:00.163Z,2.00
2019-03-10T13:56:27.325Z,2.67
2019-03-10T13:58:54.495Z,2.70
2019-03-10T14:01:21.718Z,2.63
2019-03-10T14:03:48.883Z,2.97
2019-03-10T14:06:16.049Z,3.03
2019-03-10T14:08:43.239Z,2.70
2019-03-10T14:11:10.420Z,2.80
2019-03-10T14:13:37.684Z,2.57
2019-03-10T14:16:04.853Z,2.17
2019-03-10T14:18:32.113Z,2.83
2019-03-10T14:20:59.302Z,2.37
2019-03-10T14:23:26.936Z,2.40
2019-03-10T14:25:54.122Z,2.60
2019-03-10T14:28:22.217Z,2.63
2019-03-10T14:30:49.645Z,3.33
2019-03-10T14:33:16.803Z,2.73
2019-03-10T14:35:43.992Z,2.83
2019-03-10T14:38:11.188Z,2.90
2019-03-10T14:40:38.357Z,2.67
2019-03-10T14:43:05.534Z,2.80
2019-03-10T14:45:32.722Z,3.07
2019-03-10T14:47:59.888Z,3.40
2019-03-10T14:50:27.052Z,2.93
2019-03-10T14:52:54.214Z,3.70
2019-03-10T14:55:21.680Z,4.20
2019-03-10T14:57:48.855Z,3.90
2019-03-10T15:00:17.213Z,4.13
2019-03-10T15:02:44.398Z,4.00
2019-03-10T15:05:11.577Z,3.53
2019-03-10T15:07:38.760Z,3.73
2019-03-10T15:10:07.592Z,2.80
2019-03-10T15:12:34.746Z,2.90
2019-03-10T15:15:01.947Z,3.63
2019-03-10T15:17:29.113Z,5.27
2019-03-10T15:19:56.309Z,3.07
2019-03-10T15:22:23.483Z,3.60
2019-03-10T15:24:50.654Z,3.37
2019-03-10T15:27:23.155Z,3.60
2019-03-10T15:29:46.698Z,4.50
2019-03-10T15:32:13.891Z,3.10
2019-03-10T15:34:41.058Z,3.23
2019-03-10T15:37:08.253Z,3.37
2019-03-10T15:39:35.427Z,3.03
2019-03-10T15:42:02.607Z,2.87
2019-03-10T15:44:29.783Z,6.13
2019-03-10T15:46:56.950Z,3.10
2019-03-10T15:49:24.151Z,3.00
2019-03-10T15:51:51.321Z,3.17
2019-03-10T15:54:18.486Z,3.10
2019-03-10T15:56:45.673Z,2.53
2019-03-10T15:59:12.870Z,3.00
2019-03-10T16:01:40.039Z,3.40
2019-03-10T16:04:11.506Z,2.57
2019-03-10T16:06:38.742Z,2.40
2019-03-10T16:09:05.982Z,3.00
2019-03-10T16:11:34.710Z,3.47
2019-03-10T16:14:02.046Z,4.37
2019-03-10T16:16:29.213Z,5.47
2019-03-10T16:18:56.390Z,3.57
2019-03-10T16:21:23.561Z,3.33
2019-03-10T16:23:50.747Z,3.47
2019-03-10T16:26:17.923Z,4.10
2019-03-10T16:28:45.079Z,3.00
2019-03-10T16:31:12.274Z,3.37
2019-03-10T16:33:39.430Z,2.90
2019-03-10T16:36:06.595Z,3.00
2019-03-10T16:38:33.783Z,2.97
2019-03-10T16:41:00.949Z,2.83
2019-03-10T16:43:28.143Z,2.37
2019-03-10T16:45:55.304Z,1.70
2019-03-10T16:48:22.487Z,1.20
2019-03-10T16:50:49.682Z,1.67
2019-03-10T16:53:17.446Z,1.50
2019-03-10T16:55:44.640Z,1.60
2019-03-10T16:58:11.828Z,1.40
2019-03-10T17:00:39.724Z,1.70
2019-03-10T17:03:07.545Z,1.60
2019-03-10T17:05:34.720Z,1.80
2019-03-10T17:08:02.446Z,1.40
2019-03-10T17:10:29.623Z,1.50
2019-03-10T17:12:56.800Z,1.53
2019-03-10T17:15:24.469Z,1.70
2019-03-10T17:17:51.647Z,1.50
2019-03-10T17:20:19.296Z,1.20
2019-03-10T17:22:46.464Z,1.20
2019-03-10T17:25:14.831Z,1.10
2019-03-10T17:27:42.005Z,1.80
2019-03-10T17:30:10.934Z,1.20
2019-03-10T17:32:38.145Z,1.23
2019-03-10T17:35:05.302Z,1.07
2019-03-10T17:37:32.497Z,1.37
2019-03-10T17:39:59.668Z,1.10
2019-03-10T17:42:26.872Z,1.50
2019-03-10T17:44:54.070Z,0.90
2019-03-10T17:47:21.313Z,6.30
2019-03-10T17:49:48.581Z,12.00
2019-03-10T17:52:15.757Z,7.30
2019-03-10T17:54:43.002Z,2.83
2019-03-10T17:57:10.189Z,2.00
2019-03-10T17:59:37.365Z,1.70
2019-03-10T18:02:08.819Z,1.40
2019-03-10T18:04:33.487Z,1.40
2019-03-10T18:07:00.714Z,1.40
2019-03-10T18:09:27.915Z,1.60
2019-03-10T18:11:55.160Z,1.47
2019-03-10T18:14:22.349Z,1.70
2019-03-10T18:16:49.519Z,1.67
2019-03-10T18:19:16.727Z,1.30
2019-03-10T18:21:43.928Z,1.97
2019-03-10T18:24:11.108Z,1.27
2019-03-10T18:26:38.376Z,1.57
2019-03-10T18:29:05.567Z,1.40
2019-03-10T18:31:32.831Z,1.50
2019-03-10T18:33:59.991Z,1.20
2019-03-10T18:36:27.195Z,1.10
2019-03-10T18:38:54.443Z,1.20
2019-03-10T18:41:22.435Z,1.40
2019-03-10T18:43:49.676Z,1.70
2019-03-10T18:46:16.934Z,2.13
2019-03-10T18:48:44.129Z,2.17
2019-03-10T18:51:11.299Z,1.90
2019-03-10T18:53:38.458Z,2.33
2019-03-10T18:56:05.662Z,2.70
2019-03-10T18:58:32.854Z,2.80
2019-03-10T19:01:00.053Z,2.53
2019-03-10T19:03:27.217Z,2.50
2019-03-10T19:05:54.398Z,2.30
2019-03-10T19:08:21.590Z,3.20
2019-03-10T19:10:48.764Z,2.57
2019-03-10T19:13:15.947Z,2.87
2019-03-10T19:15:43.125Z,2.30
2019-03-10T19:18:10.298Z,2.83
2019-03-10T19:20:37.481Z,2.37
2019-03-10T19:23:04.653Z,1.67
2019-03-10T19:25:31.864Z,3.17
2019-03-10T19:27:59.043Z,2.17
2019-03-10T19:30:26.702Z,2.00
2019-03-10T19:32:53.882Z,1.87
2019-03-10T19:35:21.055Z,1.87
2019-03-10T19:37:48.240Z,1.73
2019-03-10T19:40:16.091Z,2.63
2019-03-10T19:42:43.337Z,2.20
2019-03-10T19:45:12.224Z,1.77
2019-03-10T19:47:39.403Z,2.10
2019-03-10T19:50:08.640Z,2.03
2019-03-10T19:52:36.124Z,2.00
2019-03-10T19:55:04.364Z,2.10
2019-03-10T19:57:32.478Z,1.83
2019-03-10T19:59:59.672Z,1.53
2019-03-10T20:02:26.873Z,1.40
2019-03-10T20:04:54.574Z,1.30
2019-03-10T20:07:21.778Z,1.40
2019-03-10T20:09:49.502Z,1.80
2019-03-10T20:12:16.706Z,1.77
2019-03-10T20:14:43.967Z,1.77
2019-03-10T20:17:11.673Z,1.90
2019-03-10T20:19:38.933Z,1.20
2019-03-10T20:22:06.120Z,1.50
2019-03-10T20:24:33.318Z,1.67
2019-03-10T20:27:00.512Z,1.77
2019-03-10T20:29:27.796Z,1.40
2019-03-10T20:31:54.974Z,1.70
2019-03-10T20:34:22.146Z,1.70
2019-03-10T20:36:52.112Z,1.53
2019-03-10T20:39:27.019Z,1.57
2019-03-10T20:42:04.460Z,1.90
2019-03-10T20:44:23.183Z,1.80
2019-03-10T20:46:50.413Z,1.50
2019-03-10T20:49:17.715Z,2.57
2019-03-10T20:51:44.971Z,2.00
2019-03-10T20:54:12.230Z,1.60
2019-03-10T20:56:39.480Z,1.90
2019-03-10T20:59:06.736Z,2.00
2019-03-10T21:01:33.972Z,1.63
2019-03-10T21:04:01.289Z,2.27
2019-03-10T21:06:28.462Z,2.10
2019-03-10T21:08:55.651Z,2.40
2019-03-10T21:11:22.845Z,2.27
2019-03-10T21:13:50.118Z,2.07
2019-03-10T21:16:17.305Z,1.70
2019-03-10T21:18:44.484Z,1.93
2019-03-10T21:21:11.689Z,1.80
2019-03-10T21:23:38.943Z,1.80
2019-03-10T21:26:06.186Z,1.60
2019-03-10T21:28:33.370Z,1.97
2019-03-10T21:31:00.550Z,1.40
2019-03-10T21:33:27.804Z,1.90
2019-03-10T21:35:54.972Z,2.13
2019-03-10T21:38:22.154Z,1.77
2019-03-10T21:40:49.340Z,2.57
2019-03-10T21:43:16.502Z,2.77
2019-03-10T21:45:43.690Z,3.10
2019-03-10T21:48:10.881Z,3.00
2019-03-10T21:50:38.140Z,3.47
2019-03-10T21:53:05.311Z,3.37
2019-03-10T21:55:32.481Z,3.27
2019-03-10T21:57:59.673Z,3.60
2019-03-10T22:00:26.842Z,3.47
2019-03-10T22:02:54.013Z,4.07
2019-03-10T22:05:21.202Z,3.77
2019-03-10T22:07:48.381Z,3.90
2019-03-10T22:10:26.953Z,4.23
2019-03-10T22:12:47.580Z,4.17
2019-03-10T22:15:15.151Z,4.40
2019-03-10T22:17:42.403Z,4.50
2019-03-10T22:20:13.175Z,4.13
2019-03-10T22:22:48.174Z,4.20
2019-03-10T22:25:13.149Z,4.20
2019-03-10T22:27:38.284Z,5.43
2019-03-10T22:30:07.252Z,5.20
2019-03-10T22:32:34.493Z,4.87
2019-03-10T22:35:01.671Z,5.30
2019-03-10T22:37:28.867Z,6.07
2019-03-10T22:39:56.048Z,5.53
2019-03-10T22:42:23.223Z,6.40
2019-03-10T22:44:50.414Z,5.60
2019-03-10T22:47:17.587Z,5.33
2019-03-10T22:49:44.777Z,6.23
2019-03-10T22:52:11.947Z,5.00
2019-03-10T22:54:39.119Z,6.27
2019-03-10T22:57:06.330Z,6.00
2019-03-10T22:59:33.489Z,5.43
2019-03-10T23:02:00.704Z,7.30
2019-03-10T23:04:27.882Z,6.83
2019-03-10T23:06:55.055Z,6.40
2019-03-10T23:09:22.255Z,6.33
2019-03-10T23:11:49.423Z,6.63
2019-03-10T23:14:16.718Z,6.30
2019-03-10T23:16:43.888Z,6.70
2019-03-10T23:19:11.054Z,5.97
2019-03-10T23:21:38.248Z,7.20
2019-03-10T23:24:05.432Z,6.07
2019-03-10T23:26:32.615Z,6.77
2019-03-10T23:28:59.807Z,6.10
2019-03-10T23:31:27.026Z,5.70
2019-03-10T23:33:54.195Z,5.50
2019-03-10T23:36:21.370Z,5.73
2019-03-10T23:38:48.556Z,6.10
2019-03-10T23:41:15.748Z,6.93
2019-03-10T23:43:42.931Z,6.27
2019-03-10T23:46:10.118Z,4.67
2019-03-10T23:48:37.311Z,5.73
2019-03-10T23:51:04.562Z,4.47
2019-03-10T23:53:31.749Z,4.83
2019-03-10T23:55:58.922Z,4.83
2019-03-10T23:58:26.119Z,4.43
